Lookout, Wyoming
Current Conditions -  °F | °C
As of 5:53 PM on Wednesday 22 Oct 2014 (Local Time) from KLAR Reporting Station
Clear Clear  
Wind Chill: 50°   Ceiling: Unl
Heat Index: 50°   Visibility: 10mi
Dew Point: 23°   Wind: 15mph
Humidity: 35%   Direction: 270°W
Pressure: 30.17"   Gusts: NA
Location:  41.5395°N, 105.861°W
Report Text: KLAR 222353Z AUTO 27013KT 10SM CLR 10/M05 A3017 RMK AO2 SLP164 T01001050 10139 20100 53010
Loading
Personal Weather Stations






























Interactive Weather Map New forecast layout! Learn more

10-Day Weather Forecast

Advertisements
Track Severe Weather on mobile